Buxhansa — A8TQ5 — position and weather

sailwx.info

Track history (hours):
 
Tides and Currents Weather Stations Pressure Air Temp Water Temp Dewpoint Dewpoint Depression Visibility Wind Speed Wind Dir Waves Ship Positions

Buxhansa

Last reported at 2016-Jul-12 21:15 UTC. Time now 2016-Jul-26 08:21 UTC.
Position N 01°12' E 103°39'.
Warning: this ship's position is 13 days out of date.

Length 208 m; draft 7.7 m.

Type: Ship. MMSI: 636091849.

Date/timePositionNaut miles runAvg speedWind from/ knotsBaromVisibWave heightAir tempDewpointWater temp
2016-Jul-12 21:15N 01°12' E 103°39'5 6.6
2016-Jul-12 20:33N 01°15' E 103°43'3 2.1
2016-Jul-12 19:08N 01°17' E 103°45'0 0.0
2016-Jul-12 18:26N 01°17' E 103°45'0 0.0
2016-Jul-12 17:33N 01°17' E 103°45'0 0.0
2016-Jul-12 16:08N 01°17' E 103°45'0 0.0
2016-Jul-12 15:32N 01°17' E 103°45'0 0.0
2016-Jul-12 14:31N 01°17' E 103°45'0 0.0
2016-Jul-12 13:25N 01°17' E 103°45'0 0.0
2016-Jul-12 12:25N 01°17' E 103°45'0 0.0
2016-Jul-12 11:30N 01°17' E 103°45'0 0.0
2016-Jul-12 10:33N 01°17' E 103°45'0 0.0
2016-Jul-12 09:17N 01°17' E 103°45'0 0.0
2016-Jul-12 08:17N 01°17' E 103°45'0 0.0
2016-Jul-12 07:22N 01°17' E 103°45'2 2.3
2016-Jul-12 06:31N 01°15' E 103°46'8 8.1
2016-Jul-12 05:33N 01°14' E 103°54'7 5.5
2016-Jul-12 04:17N 01°16' E 104°01'  
2016-Jul-05 23:03N 01°14' E 103°60'101 3.1
2016-Jul-04 14:07N 01°49' E 102°25'  
Track history (hours):
 
Tides and Currents Weather Stations Pressure Air Temp Water Temp Dewpoint Dewpoint Depression Visibility Wind Speed Wind Dir Waves Ship Positions

Buxhansa

Last reported at 2016-Jul-12 21:15 UTC. Time now 2016-Jul-26 08:21 UTC.
Position N 01°12' E 103°39'.
Warning: this ship's position is 13 days out of date.

Length 208 m; draft 7.7 m.

Type: Ship. MMSI: 636091849.

Date/timePositionNaut miles runAvg speedWind from/ knotsBaromVisibWave heightAir tempDewpointWater temp
2016-Jul-12 21:15N 01°12' E 103°39'5 6.6
2016-Jul-12 20:33N 01°15' E 103°43'3 2.1
2016-Jul-12 19:08N 01°17' E 103°45'0 0.0
2016-Jul-12 18:26N 01°17' E 103°45'0 0.0
2016-Jul-12 17:33N 01°17' E 103°45'0 0.0
2016-Jul-12 16:08N 01°17' E 103°45'0 0.0
2016-Jul-12 15:32N 01°17' E 103°45'0 0.0
2016-Jul-12 14:31N 01°17' E 103°45'0 0.0
2016-Jul-12 13:25N 01°17' E 103°45'0 0.0
2016-Jul-12 12:25N 01°17' E 103°45'0 0.0
2016-Jul-12 11:30N 01°17' E 103°45'0 0.0
2016-Jul-12 10:33N 01°17' E 103°45'0 0.0
2016-Jul-12 09:17N 01°17' E 103°45'0 0.0
2016-Jul-12 08:17N 01°17' E 103°45'0 0.0
2016-Jul-12 07:22N 01°17' E 103°45'2 2.3
2016-Jul-12 06:31N 01°15' E 103°46'8 8.1
2016-Jul-12 05:33N 01°14' E 103°54'7 5.5
2016-Jul-12 04:17N 01°16' E 104°01'  
2016-Jul-05 23:03N 01°14' E 103°60'101 3.1
2016-Jul-04 14:07N 01°49' E 102°25'  

Dump ship's entire track history